Wetterdaten: Woche 14.03.05 - 20.03.05 (KW11)
Datum Zeit Temperatur Luftfeuchte Luftdruck Niederschlag Wind Richtung Sonne Solar Taupunkt Windchill
14.03.2005 00:00 -2.6 C 86 % 1015.9 hPa 0.0 l/m 0.0 km/h (0 Bft) N 0.00 h 0 W/m -4.6 C -2.6 C
14.03.2005 01:00 -2.7 C 86 % 1015.9 hPa 0.0 l/m 0.0 km/h (0 Bft) N 0.00 h 0 W/m -4.7 C -2.7 C
14.03.2005 02:00 -3.2 C 87 % 1015.9 hPa 0.0 l/m 0.3 km/h (0 Bft) O-SO 0.00 h 0 W/m -5.0 C -3.2 C
14.03.2005 03:00 -3.5 C 89 % 1016.0 hPa 0.0 l/m 0.4 km/h (0 Bft) O-SO 0.00 h 0 W/m -5.1 C -3.5 C
14.03.2005 04:00 -3.6 C 91 % 1016.0 hPa 0.0 l/m 0.2 km/h (0 Bft) O-SO 0.00 h 0 W/m -5.0 C -3.7 C
14.03.2005 05:00 -3.9 C 91 % 1016.5 hPa 0.0 l/m 0.0 km/h (0 Bft) N 0.00 h 0 W/m -5.1 C -3.9 C
14.03.2005 06:00 -4.1 C 92 % 1017.1 hPa 0.0 l/m 0.0 km/h (0 Bft) N 0.10 h 14 W/m -5.3 C -4.1 C
14.03.2005 07:00 -3.1 C 89 % 1017.9 hPa 0.0 l/m 0.0 km/h (0 Bft) N 0.87 h 111 W/m -4.7 C -3.1 C
14.03.2005 08:00 -0.9 C 80 % 1017.7 hPa 0.0 l/m 0.0 km/h (0 Bft) N 1.00 h 265 W/m -4.0 C -0.9 C
14.03.2005 09:00 1.3 C 68 % 1018.2 hPa 0.0 l/m 1.6 km/h (1 Bft) O-SO 1.00 h 403 W/m -3.8 C 1.1 C
14.03.2005 10:00 4.1 C 59 % 1017.0 hPa 0.0 l/m 3.1 km/h (1 Bft) SO 1.00 h 535 W/m -3.2 C 3.4 C
14.03.2005 11:00 6.7 C 52 % 1016.6 hPa 0.0 l/m 0.4 km/h (0 Bft) SO 1.00 h 618 W/m -2.6 C 6.7 C
14.03.2005 12:00 9.0 C 43 % 1016.3 hPa 0.0 l/m 0.2 km/h (0 Bft) SO 1.00 h 645 W/m -2.9 C 9.0 C
14.03.2005 13:00 11.3 C 37 % 1015.3 hPa 0.0 l/m 6.2 km/h (2 Bft) O 1.00 h 642 W/m -2.7 C 11.3 C
14.03.2005 14:00 11.8 C 35 % 1014.8 hPa 0.0 l/m 8.4 km/h (2 Bft) W 0.87 h 504 W/m -3.1 C 11.8 C
14.03.2005 15:00 11.2 C 36 % 1014.9 hPa 0.0 l/m 7.0 km/h (2 Bft) W-NW 0.70 h 328 W/m -3.3 C 11.2 C
14.03.2005 16:00 10.9 C 38 % 1015.0 hPa 0.0 l/m 7.1 km/h (2 Bft) W-NW 0.27 h 171 W/m -2.8 C 10.9 C
14.03.2005 17:00 10.3 C 41 % 1015.0 hPa 0.0 l/m 0.0 km/h (0 Bft) N 0.03 h 76 W/m -2.5 C 10.3 C
14.03.2005 18:00 8.3 C 51 % 1015.5 hPa 0.0 l/m 0.5 km/h (0 Bft) S 0.00 h 16 W/m -1.2 C 8.3 C
14.03.2005 19:00 6.7 C 62 % 1016.8 hPa 0.0 l/m 4.8 km/h (1 Bft) O-SO 0.00 h 0 W/m 0.0 C 5.9 C
14.03.2005 20:00 6.6 C 63 % 1018.0 hPa 0.0 l/m 5.5 km/h (1 Bft) W-NW 0.00 h 0 W/m 0.1 C 5.7 C
14.03.2005 21:00 6.1 C 77 % 1019.3 hPa 0.3 l/m 7.6 km/h (2 Bft) W-NW 0.00 h 0 W/m 2.2 C 4.8 C
14.03.2005 22:00 4.9 C 90 % 1020.0 hPa 0.0 l/m 3.3 km/h (1 Bft) O-SO 0.00 h 0 W/m 3.5 C 4.3 C
14.03.2005 23:00 4.9 C 94 % 1020.0 hPa 0.0 l/m 0.0 km/h (0 Bft) N 0.00 h 0 W/m 4.0 C 4.9 C
15.03.2005 00:00 4.6 C 96 % 1020.6 hPa 0.0 l/m 0.0 km/h (0 Bft) N 0.00 h 0 W/m 4.0 C 4.6 C
15.03.2005 01:00 4.3 C 96 % 1021.1 hPa 0.0 l/m 0.1 km/h (0 Bft) SO 0.00 h 0 W/m 3.7 C 4.3 C
15.03.2005 02:00 3.8 C 97 % 1021.2 hPa 0.0 l/m 0.3 km/h (0 Bft) W-SW 0.00 h 0 W/m 3.4 C 3.7 C
15.03.2005 03:00 2.5 C 97 % 1021.4 hPa 0.0 l/m 0.0 km/h (0 Bft) N 0.00 h 0 W/m 2.1 C 2.5 C
15.03.2005 04:00 1.7 C 99 % 1022.5 hPa 0.0 l/m 0.0 km/h (0 Bft) N 0.00 h 0 W/m 1.5 C 1.7 C
15.03.2005 05:00 1.5 C 100 % 1022.5 hPa 0.0 l/m 0.0 km/h (0 Bft) N 0.00 h 0 W/m 1.5 C 1.5 C
15.03.2005 06:00 1.4 C 100 % 1023.5 hPa 0.0 l/m 2.2 km/h (1 Bft) O-SO 0.00 h 8 W/m 1.4 C 1.0 C
15.03.2005 07:00 1.5 C 100 % 1024.3 hPa 0.0 l/m 0.0 km/h (0 Bft) N 0.00 h 44 W/m 1.5 C 1.5 C
15.03.2005 08:00 2.2 C 100 % 1024.8 hPa 0.0 l/m 0.0 km/h (0 Bft) N 0.07 h 151 W/m 2.2 C 2.2 C
15.03.2005 09:00 3.7 C 100 % 1025.3 hPa 0.0 l/m 0.3 km/h (0 Bft) NO 0.87 h 386 W/m 3.7 C 3.7 C
15.03.2005 10:00 7.8 C 85 % 1024.7 hPa 0.0 l/m 0.8 km/h (0 Bft) NO 1.00 h 553 W/m 5.3 C 7.8 C
15.03.2005 11:00 11.8 C 55 % 1024.3 hPa 0.0 l/m 14.6 km/h (3 Bft) W-NW 1.00 h 638 W/m 3.1 C 11.8 C
15.03.2005 12:00 13.3 C 50 % 1024.0 hPa 0.0 l/m 16.2 km/h (3 Bft) NW 1.00 h 667 W/m 3.0 C 13.3 C
15.03.2005 13:00 15.1 C 45 % 1023.7 hPa 0.0 l/m 0.0 km/h (0 Bft) N 1.00 h 652 W/m 3.4 C 15.1 C
15.03.2005 14:00 16.2 C 43 % 1023.5 hPa 0.0 l/m 11.4 km/h (2 Bft) W-NW 1.00 h 586 W/m 3.5 C 16.2 C
15.03.2005 15:00 16.9 C 41 % 1023.5 hPa 0.0 l/m 12.6 km/h (3 Bft) W-NW 1.00 h 484 W/m 3.6 C 16.9 C
15.03.2005 16:00 16.6 C 42 % 1023.6 hPa 0.0 l/m 10.0 km/h (2 Bft) W-NW 1.00 h 345 W/m 3.6 C 16.6 C
15.03.2005 17:00 15.4 C 45 % 1023.7 hPa 0.0 l/m 2.6 km/h (1 Bft) W-NW 1.00 h 165 W/m 3.4 C 15.4 C
15.03.2005 18:00 12.5 C 58 % 1024.6 hPa 0.0 l/m 3.5 km/h (1 Bft) O-SO 0.40 h 36 W/m 4.5 C 12.5 C
15.03.2005 19:00 9.5 C 72 % 1025.5 hPa 0.0 l/m 9.0 km/h (2 Bft) O-SO 0.00 h 0 W/m 4.7 C 8.7 C
15.03.2005 20:00 7.5 C 78 % 1026.9 hPa 0.0 l/m 4.6 km/h (1 Bft) O-SO 0.00 h 0 W/m 4.0 C 7.0 C
15.03.2005 21:00 5.5 C 84 % 1027.8 hPa 0.0 l/m 0.5 km/h (0 Bft) O-SO 0.00 h 0 W/m 3.1 C 5.4 C
15.03.2005 22:00 4.3 C 89 % 1028.4 hPa 0.0 l/m 0.3 km/h (0 Bft) O-SO 0.00 h 0 W/m 2.8 C 4.3 C
15.03.2005 23:00 3.2 C 94 % 1029.0 hPa 0.0 l/m 0.0 km/h (0 Bft) N 0.00 h 0 W/m 2.3 C 3.2 C
16.03.2005 00:00 2.2 C 96 % 1029.7 hPa 0.0 l/m 0.0 km/h (0 Bft) N 0.00 h 0 W/m 1.6 C 2.2 C
16.03.2005 01:00 1.9 C 98 % 1030.6 hPa 0.0 l/m 0.5 km/h (0 Bft) O-SO 0.00 h 0 W/m 1.7 C 1.9 C
16.03.2005 02:00 0.9 C 99 % 1030.9 hPa 0.0 l/m 0.1 km/h (0 Bft) O-SO 0.00 h 0 W/m 0.7 C 0.9 C
16.03.2005 03:00 0.6 C 100 % 1031.0 hPa 0.0 l/m 0.4 km/h (0 Bft) O-SO 0.00 h 0 W/m 0.6 C 0.6 C
16.03.2005 04:00 -0.1 C 100 % 1031.1 hPa 0.0 l/m 0.8 km/h (0 Bft) O-SO 0.00 h 0 W/m -0.1 C -0.2 C
16.03.2005 05:00 -0.5 C 100 % 1031.2 hPa 0.0 l/m 0.7 km/h (0 Bft) O-SO 0.00 h 0 W/m -0.5 C -0.6 C
16.03.2005 06:00 -1.0 C 100 % 1031.2 hPa 0.0 l/m 0.0 km/h (0 Bft) N 0.05 h 15 W/m -1.0 C -1.0 C
16.03.2005 07:00 -0.1 C 100 % 1031.4 hPa 0.0 l/m 0.6 km/h (0 Bft) O-SO 0.63 h 106 W/m -0.1 C -0.1 C
16.03.2005 08:00 1.9 C 100 % 1031.8 hPa 0.0 l/m 0.0 km/h (0 Bft) N 1.00 h 302 W/m 1.9 C 1.9 C
16.03.2005 09:00 5.0 C 88 % 1031.4 hPa 0.0 l/m 0.0 km/h (0 Bft) N 1.00 h 458 W/m 3.1 C 5.0 C
16.03.2005 10:00 10.0 C 63 % 1030.6 hPa 0.0 l/m 3.4 km/h (1 Bft) N-NO 1.00 h 574 W/m 3.1 C 9.6 C
16.03.2005 11:00 13.7 C 50 % 1029.5 hPa 0.0 l/m 5.5 km/h (1 Bft) SO 1.00 h 647 W/m 3.6 C 13.7 C
16.03.2005 12:00 16.3 C 44 % 1028.8 hPa 0.0 l/m 11.5 km/h (2 Bft) S-SO 1.00 h 685 W/m 4.1 C 16.3 C
16.03.2005 13:00 18.6 C 37 % 1028.1 hPa 0.0 l/m 12.1 km/h (2 Bft) SO 1.00 h 665 W/m 3.8 C 18.6 C
16.03.2005 14:00 19.7 C 35 % 1027.3 hPa 0.0 l/m 11.9 km/h (2 Bft) O-SO 1.00 h 597 W/m 3.8 C 19.7 C
16.03.2005 15:00 19.8 C 33 % 1027.1 hPa 0.0 l/m 8.8 km/h (2 Bft) O-SO 1.00 h 505 W/m 3.1 C 19.8 C
16.03.2005 16:00 19.2 C 30 % 1026.3 hPa 0.0 l/m 10.4 km/h (2 Bft) SO 1.00 h 373 W/m 1.3 C 19.2 C
16.03.2005 17:00 18.0 C 34 % 1026.5 hPa 0.0 l/m 6.4 km/h (2 Bft) W 1.00 h 204 W/m 1.7 C 18.0 C
16.03.2005 18:00 15.3 C 41 % 1026.8 hPa 0.0 l/m 4.2 km/h (1 Bft) SO 0.43 h 47 W/m 1.9 C 15.3 C
16.03.2005 19:00 11.9 C 53 % 1028.2 hPa 0.0 l/m 1.9 km/h (1 Bft) O-SO 0.00 h 0 W/m 2.6 C 11.9 C
16.03.2005 20:00 9.5 C 62 % 1028.7 hPa 0.0 l/m 0.3 km/h (0 Bft) O-SO 0.00 h 0 W/m 2.6 C 9.5 C
16.03.2005 21:00 7.0 C 73 % 1029.3 hPa 0.0 l/m 1.1 km/h (0 Bft) O-SO 0.00 h 0 W/m 2.4 C 7.0 C
16.03.2005 22:00 5.7 C 81 % 1030.2 hPa 0.0 l/m 0.0 km/h (0 Bft) N 0.00 h 0 W/m 2.7 C 5.7 C
16.03.2005 23:00 4.7 C 86 % 1030.4 hPa 0.0 l/m 0.2 km/h (0 Bft) O-SO 0.00 h 0 W/m 2.5 C 4.6 C
17.03.2005 00:00 3.5 C 90 % 1030.7 hPa 0.0 l/m 0.0 km/h (0 Bft) N 0.00 h 0 W/m 2.0 C 3.5 C
17.03.2005 01:00 2.6 C 92 % 1031.7 hPa 0.0 l/m 0.0 km/h (0 Bft) N 0.00 h 0 W/m 1.4 C 2.6 C
17.03.2005 02:00 2.0 C 95 % 1031.8 hPa 0.0 l/m 0.0 km/h (0 Bft) N 0.00 h 0 W/m 1.2 C 2.0 C
17.03.2005 03:00 1.6 C 98 % 1031.9 hPa 0.0 l/m 0.0 km/h (0 Bft) N 0.00 h 0 W/m 1.3 C 1.6 C
17.03.2005 04:00 1.3 C 99 % 1031.9 hPa 0.0 l/m 0.0 km/h (0 Bft) O-NO 0.00 h 0 W/m 1.1 C 1.3 C
17.03.2005 05:00 0.9 C 100 % 1032.0 hPa 0.0 l/m 0.3 km/h (0 Bft) O-NO 0.00 h 0 W/m 0.9 C 0.9 C
17.03.2005 06:00 0.9 C 100 % 1032.4 hPa 0.0 l/m 3.0 km/h (1 Bft) O-SO 0.17 h 19 W/m 0.9 C 0.1 C
17.03.2005 07:00 2.5 C 92 % 1032.8 hPa 0.0 l/m 0.0 km/h (0 Bft) N 0.93 h 125 W/m 1.4 C 2.5 C
17.03.2005 08:00 4.3 C 85 % 1032.4 hPa 0.0 l/m 0.3 km/h (0 Bft) NO 0.63 h 210 W/m 2.0 C 4.3 C
17.03.2005 09:00 8.7 C 69 % 1031.9 hPa 0.0 l/m 3.3 km/h (1 Bft) O-SO 1.00 h 425 W/m 3.2 C 8.7 C
17.03.2005 10:00 13.7 C 50 % 1031.2 hPa 0.0 l/m 8.0 km/h (2 Bft) SO 1.00 h 547 W/m 3.3 C 13.7 C
17.03.2005 11:00 17.0 C 43 % 1030.1 hPa 0.0 l/m 12.8 km/h (3 Bft) SO 1.00 h 569 W/m 4.3 C 17.0 C
17.03.2005 12:00 18.7 C 41 % 1029.1 hPa 0.0 l/m 14.3 km/h (3 Bft) SO 0.93 h 558 W/m 5.1 C 18.7 C
17.03.2005 13:00 20.5 C 38 % 1028.2 hPa 0.0 l/m 12.3 km/h (3 Bft) W 1.00 h 618 W/m 5.6 C 20.5 C
17.03.2005 14:00 22.0 C 36 % 1028.0 hPa 0.0 l/m 12.2 km/h (2 Bft) W-NW 0.97 h 616 W/m 6.1 C 22.0 C
17.03.2005 15:00 22.0 C 36 % 1028.0 hPa 0.0 l/m 23.5 km/h (4 Bft) W-NW 0.83 h 504 W/m 6.3 C 22.0 C
17.03.2005 16:00 20.7 C 41 % 1028.2 hPa 0.0 l/m 20.9 km/h (4 Bft) W-NW 0.73 h 300 W/m 7.0 C 20.7 C
17.03.2005 17:00 19.4 C 45 % 1028.4 hPa 0.0 l/m 15.4 km/h (3 Bft) W-NW 0.83 h 146 W/m 7.3 C 19.4 C
17.03.2005 18:00 17.3 C 50 % 1028.7 hPa 0.0 l/m 5.4 km/h (1 Bft) W-NW 0.37 h 30 W/m 6.7 C 17.3 C
17.03.2005 19:00 14.2 C 59 % 1029.8 hPa 0.0 l/m 5.7 km/h (1 Bft) O-SO 0.00 h 0 W/m 6.4 C 14.2 C
17.03.2005 20:00 12.4 C 65 % 1030.3 hPa 0.0 l/m 3.0 km/h (1 Bft) O-SO 0.00 h 0 W/m 6.1 C 12.4 C
17.03.2005 21:00 10.6 C 74 % 1030.6 hPa 0.0 l/m 0.0 km/h (0 Bft) N 0.00 h 0 W/m 6.1 C 10.6 C
17.03.2005 22:00 9.4 C 76 % 1031.3 hPa 0.0 l/m 0.0 km/h (0 Bft) N 0.00 h 0 W/m 5.4 C 9.4 C
17.03.2005 23:00 8.1 C 86 % 1031.9 hPa 0.0 l/m 0.0 km/h (0 Bft) N 0.00 h 0 W/m 5.9 C 8.1 C
18.03.2005 00:00 7.0 C 87 % 1031.2 hPa 0.0 l/m 0.0 km/h (0 Bft) N 0.00 h 0 W/m 5.0 C 7.0 C
18.03.2005 01:00 6.1 C 93 % 1032.2 hPa 0.0 l/m 0.0 km/h (0 Bft) N 0.00 h 0 W/m 5.1 C 6.1 C
18.03.2005 02:00 5.4 C 98 % 1032.2 hPa 0.0 l/m 0.0 km/h (0 Bft) N 0.00 h 0 W/m 5.0 C 5.4 C
18.03.2005 03:00 4.5 C 99 % 1031.7 hPa 0.0 l/m 0.0 km/h (0 Bft) N 0.00 h 0 W/m 4.4 C 4.5 C
18.03.2005 04:00 4.7 C 100 % 1032.1 hPa 0.0 l/m 0.0 km/h (0 Bft) N 0.00 h 0 W/m 4.6 C 4.7 C
18.03.2005 05:00 3.7 C 100 % 1032.6 hPa 0.0 l/m 0.0 km/h (0 Bft) N 0.00 h 0 W/m 3.6 C 3.7 C
18.03.2005 06:00 3.3 C 100 % 1032.7 hPa 0.0 l/m 0.0 km/h (0 Bft) N 0.03 h 17 W/m 3.3 C 3.3 C
18.03.2005 07:00 4.0 C 100 % 1032.6 hPa 0.0 l/m 0.0 km/h (0 Bft) N 0.90 h 133 W/m 4.0 C 4.0 C
18.03.2005 08:00 6.3 C 92 % 1032.2 hPa 0.0 l/m 0.0 km/h (0 Bft) N 1.00 h 324 W/m 5.0 C 6.3 C
18.03.2005 09:00 10.8 C 71 % 1031.6 hPa 0.0 l/m 0.9 km/h (0 Bft) O-SO 1.00 h 469 W/m 5.8 C 10.8 C
18.03.2005 10:00 13.7 C 57 % 1030.2 hPa 0.0 l/m 1.4 km/h (1 Bft) O-SO 1.00 h 579 W/m 5.3 C 13.7 C
18.03.2005 11:00 16.9 C 49 % 1029.5 hPa 0.0 l/m 6.5 km/h (2 Bft) SO 1.00 h 648 W/m 6.2 C 16.9 C
18.03.2005 12:00 19.7 C 45 % 1028.3 hPa 0.0 l/m 7.6 km/h (2 Bft) SO 1.00 h 684 W/m 7.3 C 19.7 C
18.03.2005 13:00 21.5 C 40 % 1027.2 hPa 0.0 l/m 4.7 km/h (1 Bft) W-NW 1.00 h 667 W/m 7.4 C 21.5 C
18.03.2005 14:00 22.3 C 34 % 1026.1 hPa 0.0 l/m 10.0 km/h (2 Bft) W-NW 1.00 h 617 W/m 5.7 C 22.3 C
18.03.2005 15:00 22.5 C 35 % 1025.9 hPa 0.0 l/m 11.8 km/h (2 Bft) W-NW 1.00 h 520 W/m 6.4 C 22.5 C
18.03.2005 16:00 22.2 C 35 % 1024.9 hPa 0.0 l/m 14.7 km/h (3 Bft) NW 1.00 h 384 W/m 6.1 C 22.2 C
18.03.2005 17:00 20.7 C 36 % 1025.1 hPa 0.0 l/m 9.8 km/h (2 Bft) W-NW 1.00 h 219 W/m 5.0 C 20.7 C
18.03.2005 18:00 17.5 C 43 % 1025.5 hPa 0.0 l/m 1.9 km/h (1 Bft) SO 0.47 h 57 W/m 4.6 C 17.5 C
18.03.2005 19:00 14.4 C 52 % 1025.9 hPa 0.0 l/m 2.1 km/h (1 Bft) O-SO 0.00 h 0 W/m 4.8 C 14.4 C
18.03.2005 20:00 11.5 C 65 % 1026.3 hPa 0.0 l/m 0.4 km/h (0 Bft) O-SO 0.00 h 0 W/m 5.1 C 11.5 C
18.03.2005 21:00 9.6 C 73 % 1026.6 hPa 0.0 l/m 1.7 km/h (1 Bft) O-SO 0.00 h 0 W/m 4.9 C 9.5 C
18.03.2005 22:00 8.4 C 76 % 1027.4 hPa 0.0 l/m 0.9 km/h (0 Bft) O 0.00 h 0 W/m 4.4 C 8.3 C
18.03.2005 23:00 7.3 C 82 % 1027.9 hPa 0.0 l/m 1.0 km/h (0 Bft) O-SO 0.00 h 0 W/m 4.5 C 7.1 C
19.03.2005 00:00 6.1 C 86 % 1027.6 hPa 0.0 l/m 0.9 km/h (0 Bft) O-SO 0.00 h 0 W/m 4.0 C 6.0 C
19.03.2005 01:00 6.0 C 89 % 1027.1 hPa 0.0 l/m 0.2 km/h (0 Bft) O-SO 0.00 h 0 W/m 4.3 C 6.0 C
19.03.2005 02:00 6.2 C 88 % 1027.1 hPa 0.0 l/m 0.0 km/h (0 Bft) N 0.00 h 0 W/m 4.4 C 6.2 C
19.03.2005 03:00 6.0 C 91 % 1026.2 hPa 0.0 l/m 0.0 km/h (0 Bft) N 0.00 h 0 W/m 4.6 C 6.0 C
19.03.2005 04:00 5.7 C 91 % 1026.1 hPa 0.0 l/m 0.2 km/h (0 Bft) O-SO 0.00 h 0 W/m 4.4 C 5.7 C
19.03.2005 05:00 6.0 C 91 % 1026.0 hPa 0.0 l/m 0.0 km/h (0 Bft) N 0.00 h 0 W/m 4.6 C 6.0 C
19.03.2005 06:00 6.1 C 92 % 1026.0 hPa 0.0 l/m 0.0 km/h (0 Bft) N 0.00 h 14 W/m 4.9 C 6.1 C
19.03.2005 07:00 6.2 C 94 % 1026.0 hPa 0.0 l/m 0.0 km/h (0 Bft) N 0.40 h 111 W/m 5.2 C 6.2 C
19.03.2005 08:00 8.7 C 80 % 1025.7 hPa 0.0 l/m 0.0 km/h (0 Bft) N 1.00 h 340 W/m 5.4 C 8.7 C
19.03.2005 09:00 10.9 C 69 % 1025.0 hPa 0.0 l/m 0.0 km/h (0 Bft) N 1.00 h 488 W/m 5.3 C 10.9 C
19.03.2005 10:00 13.7 C 57 % 1023.9 hPa 0.0 l/m 1.1 km/h (1 Bft) W-NW 1.00 h 606 W/m 5.4 C 13.7 C
19.03.2005 11:00 16.6 C 50 % 1023.0 hPa 0.0 l/m 2.2 km/h (1 Bft) NW 1.00 h 666 W/m 6.1 C 16.6 C
19.03.2005 12:00 18.8 C 44 % 1021.8 hPa 0.0 l/m 3.0 km/h (1 Bft) W-NW 1.00 h 699 W/m 6.4 C 18.8 C
19.03.2005 13:00 20.9 C 40 % 1020.5 hPa 0.0 l/m 5.4 km/h (1 Bft) W-NW 1.00 h 688 W/m 6.6 C 20.9 C
19.03.2005 14:00 22.2 C 40 % 1019.7 hPa 0.0 l/m 1.8 km/h (1 Bft) W 1.00 h 625 W/m 8.0 C 22.2 C
19.03.2005 15:00 22.3 C 40 % 1018.8 hPa 0.0 l/m 2.0 km/h (1 Bft) W-NW 0.80 h 450 W/m 8.1 C 22.3 C
19.03.2005 16:00 22.1 C 40 % 1018.4 hPa 0.0 l/m 0.1 km/h (0 Bft) N 1.00 h 350 W/m 7.8 C 22.1 C
19.03.2005 17:00 21.8 C 41 % 1017.7 hPa 0.0 l/m 0.9 km/h (0 Bft) NO 0.83 h 174 W/m 7.8 C 21.8 C
19.03.2005 18:00 19.2 C 50 % 1018.6 hPa 0.0 l/m 2.7 km/h (1 Bft) N-NO 0.40 h 40 W/m 8.7 C 19.2 C
19.03.2005 19:00 17.6 C 58 % 1019.3 hPa 0.0 l/m 2.0 km/h (1 Bft) NO 0.00 h 0 W/m 9.4 C 17.6 C
19.03.2005 20:00 16.2 C 64 % 1019.5 hPa 0.0 l/m 1.1 km/h (0 Bft) O 0.00 h 0 W/m 9.3 C 16.2 C
19.03.2005 21:00 15.4 C 67 % 1020.2 hPa 0.0 l/m 1.3 km/h (1 Bft) NO 0.00 h 0 W/m 9.3 C 15.4 C
19.03.2005 22:00 14.5 C 73 % 1020.7 hPa 0.0 l/m 2.2 km/h (1 Bft) O-NO 0.00 h 0 W/m 9.7 C 14.5 C
19.03.2005 23:00 13.6 C 77 % 1020.8 hPa 0.0 l/m 0.9 km/h (0 Bft) NO 0.00 h 0 W/m 9.6 C 13.6 C
20.03.2005 00:00 12.5 C 82 % 1020.0 hPa 0.0 l/m 0.2 km/h (0 Bft) NO 0.00 h 0 W/m 9.5 C 12.5 C
20.03.2005 01:00 12.2 C 86 % 1020.9 hPa 0.0 l/m 1.1 km/h (1 Bft) NO 0.00 h 0 W/m 9.9 C 12.2 C
20.03.2005 02:00 11.6 C 88 % 1021.1 hPa 0.0 l/m 0.0 km/h (0 Bft) N 0.00 h 0 W/m 9.7 C 11.6 C
20.03.2005 03:00 10.9 C 90 % 1021.2 hPa 0.0 l/m 0.5 km/h (0 Bft) O-NO 0.00 h 0 W/m 9.3 C 10.9 C
20.03.2005 04:00 10.8 C 89 % 1021.2 hPa 0.0 l/m 0.7 km/h (0 Bft) O 0.00 h 0 W/m 9.1 C 10.8 C
20.03.2005 05:00 11.1 C 88 % 1020.9 hPa 0.0 l/m 6.3 km/h (2 Bft) O-SO 0.00 h 0 W/m 9.3 C 11.1 C
20.03.2005 06:00 10.9 C 85 % 1019.6 hPa 0.0 l/m 6.2 km/h (2 Bft) O-SO 0.00 h 7 W/m 8.5 C 10.9 C
20.03.2005 07:00 10.6 C 85 % 1020.2 hPa 0.0 l/m 5.9 km/h (2 Bft) O-SO 0.00 h 29 W/m 8.1 C 10.6 C
20.03.2005 08:00 11.0 C 79 % 1020.1 hPa 0.0 l/m 11.6 km/h (2 Bft) O-SO 0.00 h 81 W/m 7.4 C 11.0 C
20.03.2005 09:00 12.5 C 73 % 1019.8 hPa 0.0 l/m 14.0 km/h (3 Bft) O-SO 0.00 h 203 W/m 7.7 C 12.5 C
20.03.2005 10:00 13.0 C 67 % 1019.3 hPa 0.0 l/m 14.8 km/h (3 Bft) O-SO 0.48 h 383 W/m 6.9 C 13.0 C
20.03.2005 11:00 14.9 C 62 % 1018.6 hPa 0.0 l/m 7.3 km/h (2 Bft) O 0.97 h 720 W/m 7.7 C 14.9 C
20.03.2005 12:00 16.5 C 59 % 1018.1 hPa 0.0 l/m 9.3 km/h (2 Bft) O-SO 1.00 h 687 W/m 8.5 C 16.5 C
20.03.2005 13:00 17.8 C 54 % 1017.2 hPa 0.0 l/m 18.3 km/h (3 Bft) O-SO 0.97 h 760 W/m 8.4 C 17.8 C
20.03.2005 14:00 16.9 C 54 % 1016.5 hPa 0.0 l/m 5.9 km/h (2 Bft) N-NO 0.00 h 274 W/m 7.4 C 16.9 C
20.03.2005 15:00 17.0 C 54 % 1016.2 hPa 0.0 l/m 12.5 km/h (3 Bft) O 0.20 h 271 W/m 7.6 C 17.0 C
20.03.2005 16:00 15.4 C 58 % 1016.4 hPa 0.0 l/m 18.6 km/h (3 Bft) O-SO 0.03 h 171 W/m 7.2 C 15.4 C
20.03.2005 17:00 14.0 C 61 % 1016.6 hPa 0.0 l/m 13.0 km/h (3 Bft) O-SO 0.50 h 116 W/m 6.7 C 14.0 C
20.03.2005 18:00 12.2 C 65 % 1016.9 hPa 0.0 l/m 10.1 km/h (2 Bft) O-SO 0.50 h 45 W/m 5.8 C 12.2 C
20.03.2005 19:00 10.6 C 68 % 1017.8 hPa 0.0 l/m 11.1 km/h (2 Bft) O-SO 0.00 h 0 W/m 4.9 C 10.6 C
20.03.2005 20:00 10.0 C 72 % 1018.2 hPa 0.0 l/m 9.1 km/h (2 Bft) O 0.00 h 0 W/m 5.3 C 9.4 C
20.03.2005 21:00 9.4 C 76 % 1018.3 hPa 0.0 l/m 5.6 km/h (1 Bft) O 0.00 h 0 W/m 5.3 C 8.7 C
20.03.2005 22:00 8.5 C 81 % 1018.4 hPa 0.0 l/m 3.3 km/h (1 Bft) O 0.00 h 0 W/m 5.5 C 8.1 C
20.03.2005 23:00 7.9 C 83 % 1018.5 hPa 0.0 l/m 2.8 km/h (1 Bft) O-NO 0.00 h 0 W/m 5.1 C 7.5 C
Min-Datum _ 14.03.05 16.03.05 14.03.05 - 14.03.05 - - - 14.03.05 14.03.05
_ Min-Zeit 06:36 15:50 14:44 - 00:00 - - - 06:46 04:48
Minimum _ -4.5 C 30 % 1014.7 hPa - 0.0 km/h (0 Bft) - - - -6.2 C -5.8 C
Max-Datum _ 17.03.05 15.03.05 17.03.05 14.03.05 17.03.05 - 16.03.05 20.03.05 20.03.05 17.03.05
_ Max-Zeit 15:18 04:56 06:44 21:52 15:36 - 06:50 13:43 00:44 15:18
Maximum _ 22.9 C 100 % 1033.0 hPa 0.3 l/m 44.5 km/h
W-NW (6 Bft)
- 0.05 h 813 W/m 10.4 C 22.9 C
Durchschnitt _ 9.7 C 71 % 1024.5 hPa #0.3 l/m 3.9 km/h (1 Bft) O-SO #66:10 h 365 W/m 3.7 C 9.6 C

Durchschnitt Minimum Temp.8.9 C
Durchschnitt Maximum Temp.10.5 C
© Kaiko 2005